createdAt,value
2023-01-13T00:00:49.897Z,81.20
2023-01-13T00:03:27.200Z,81.23
2023-01-13T00:06:01.550Z,80.97
2023-01-13T00:08:34.283Z,81.01
2023-01-13T00:11:06.227Z,81.03
2023-01-13T00:13:38.647Z,80.92
2023-01-13T00:16:15.748Z,81.37
2023-01-13T00:18:48.814Z,81.10
2023-01-13T00:21:21.946Z,80.58
2023-01-13T00:23:55.290Z,80.77
2023-01-13T00:26:30.719Z,81.08
2023-01-13T00:29:03.065Z,81.02
2023-01-13T00:31:34.975Z,81.19
2023-01-13T00:34:07.122Z,81.52
2023-01-13T00:36:39.055Z,81.10
2023-01-13T00:39:10.963Z,81.23
2023-01-13T00:42:00.858Z,81.08
2023-01-13T00:44:32.738Z,81.34
2023-01-13T00:47:04.642Z,81.18
2023-01-13T00:49:36.452Z,81.32
2023-01-13T00:52:08.571Z,81.45
2023-01-13T00:54:40.663Z,81.39
2023-01-13T00:57:12.578Z,81.73
2023-01-13T00:59:44.689Z,81.62
2023-01-13T01:02:16.968Z,81.64
2023-01-13T01:04:49.192Z,81.54
2023-01-13T01:07:21.150Z,81.79
2023-01-13T01:09:53.780Z,81.76
2023-01-13T01:12:25.652Z,82.00
2023-01-13T01:14:57.473Z,82.01
2023-01-13T01:17:30.638Z,81.92
2023-01-13T01:20:02.869Z,82.16
2023-01-13T01:22:34.985Z,82.33
2023-01-13T01:25:08.350Z,82.48
2023-01-13T01:27:40.299Z,82.39
2023-01-13T01:30:17.634Z,82.41
2023-01-13T01:32:49.697Z,82.40
2023-01-13T01:35:21.761Z,82.41
2023-01-13T01:37:53.624Z,82.48
2023-01-13T01:40:27.863Z,82.33
2023-01-13T01:43:17.632Z,82.53
2023-01-13T01:45:52.764Z,82.05
2023-01-13T01:48:24.688Z,82.07
2023-01-13T01:50:57.119Z,82.27
2023-01-13T01:53:30.553Z,82.44
2023-01-13T01:56:03.383Z,82.68
2023-01-13T01:58:36.806Z,83.36
2023-01-13T02:01:09.484Z,83.62
2023-01-13T02:03:43.408Z,83.56
2023-01-13T02:06:16.172Z,83.49
2023-01-13T02:08:49.100Z,83.54
2023-01-13T02:12:12.455Z,83.41
2023-01-13T02:14:44.730Z,83.72
2023-01-13T02:17:24.229Z,83.76
2023-01-13T02:20:34.185Z,83.79
2023-01-13T02:23:59.505Z,83.88
2023-01-13T02:26:59.236Z,83.86
2023-01-13T02:30:03.363Z,84.13
2023-01-13T02:32:39.843Z,84.10
2023-01-13T02:35:16.259Z,84.07
2023-01-13T02:37:48.800Z,83.91
2023-01-13T02:40:22.488Z,84.10
2023-01-13T02:43:17.001Z,83.87
2023-01-13T02:45:52.684Z,84.22
2023-01-13T02:48:25.836Z,84.05
2023-01-13T02:51:00.294Z,84.41
2023-01-13T02:53:35.680Z,84.65
2023-01-13T02:56:08.711Z,84.52
2023-01-13T02:58:42.282Z,84.57
2023-01-13T03:01:14.182Z,84.76
2023-01-13T03:03:47.113Z,84.52
2023-01-13T03:06:32.248Z,84.32
2023-01-13T03:09:09.055Z,84.54
2023-01-13T03:11:47.100Z,84.49
2023-01-13T03:14:28.207Z,84.25
2023-01-13T03:17:13.575Z,84.26
2023-01-13T03:19:48.222Z,84.43
2023-01-13T03:22:27.752Z,84.59
2023-01-13T03:25:03.916Z,84.60
2023-01-13T03:27:41.734Z,84.42
2023-01-13T03:30:19.010Z,84.50
2023-01-13T03:32:53.573Z,84.87
2023-01-13T03:35:28.985Z,85.07
2023-01-13T03:38:04.203Z,85.05
2023-01-13T03:40:38.229Z,85.20
2023-01-13T03:43:30.911Z,85.49
2023-01-13T03:46:06.497Z,85.28
2023-01-13T03:48:40.307Z,85.37
2023-01-13T03:51:15.173Z,85.21
2023-01-13T03:53:50.731Z,85.38
2023-01-13T03:56:28.926Z,85.61
2023-01-13T03:59:01.839Z,85.77
2023-01-13T04:01:36.564Z,85.84
2023-01-13T04:04:10.765Z,86.06
2023-01-13T04:06:45.715Z,86.11
2023-01-13T04:09:20.033Z,86.23
2023-01-13T04:11:55.197Z,86.30
2023-01-13T04:14:27.483Z,86.55
2023-01-13T04:16:59.819Z,87.14
2023-01-13T04:19:31.761Z,86.89
2023-01-13T04:22:03.766Z,87.09
2023-01-13T04:24:37.244Z,87.48
2023-01-13T04:27:09.681Z,87.02
2023-01-13T04:29:41.558Z,86.98
2023-01-13T04:32:13.588Z,87.36
2023-01-13T04:34:45.306Z,87.10
2023-01-13T04:37:17.558Z,87.38
2023-01-13T04:39:49.340Z,87.08
2023-01-13T04:42:21.471Z,87.29
2023-01-13T04:44:53.260Z,87.41
2023-01-13T04:47:25.526Z,87.34
2023-01-13T04:49:57.393Z,87.44
2023-01-13T04:52:29.571Z,87.22
2023-01-13T04:55:01.392Z,87.75
2023-01-13T04:57:35.037Z,87.87
2023-01-13T05:00:09.038Z,88.24
2023-01-13T05:02:39.594Z,88.03
2023-01-13T05:05:12.735Z,88.01
2023-01-13T05:07:44.813Z,88.17
2023-01-13T05:10:17.032Z,88.37
2023-01-13T05:13:07.156Z,88.24
2023-01-13T05:15:56.719Z,88.34
2023-01-13T05:18:29.063Z,88.51
2023-01-13T05:21:00.889Z,88.53
2023-01-13T05:23:50.737Z,89.05
2023-01-13T05:26:23.988Z,88.77
2023-01-13T05:28:55.916Z,89.08
2023-01-13T05:31:27.730Z,89.04
2023-01-13T05:33:59.949Z,88.86
2023-01-13T05:36:31.730Z,89.37
2023-01-13T05:39:05.474Z,90.06
2023-01-13T05:41:54.575Z,89.55
2023-01-13T05:44:26.539Z,89.63
2023-01-13T05:46:58.411Z,89.83
2023-01-13T05:49:30.453Z,89.93
2023-01-13T05:52:02.238Z,89.92
2023-01-13T05:54:34.146Z,90.20
2023-01-13T05:57:06.111Z,90.91
2023-01-13T05:59:38.279Z,91.08
2023-01-13T06:02:10.138Z,91.18
2023-01-13T06:04:42.207Z,91.65
2023-01-13T06:07:14.052Z,92.62
2023-01-13T06:09:46.138Z,92.27
2023-01-13T06:12:18.001Z,92.94
2023-01-13T06:14:50.165Z,93.03
2023-01-13T06:17:21.952Z,93.42
2023-01-13T06:19:54.385Z,93.52
2023-01-13T06:22:28.186Z,93.42
2023-01-13T06:25:00.317Z,93.62
2023-01-13T06:27:33.002Z,93.09
2023-01-13T06:30:05.366Z,93.75
2023-01-13T06:32:41.369Z,93.90
2023-01-13T06:35:17.166Z,93.78
2023-01-13T06:37:51.993Z,94.05
2023-01-13T06:40:24.191Z,94.39
2023-01-13T06:43:16.846Z,94.80
2023-01-13T06:45:51.096Z,95.40
2023-01-13T06:48:25.941Z,94.79
2023-01-13T06:50:57.734Z,94.56
2023-01-13T06:53:29.702Z,94.76
2023-01-13T06:56:01.766Z,95.31
2023-01-13T06:58:33.669Z,95.70
2023-01-13T07:01:06.195Z,95.45
2023-01-13T07:03:38.200Z,95.48
2023-01-13T07:06:10.737Z,95.34
2023-01-13T07:08:42.863Z,95.75
2023-01-13T07:11:14.735Z,95.93
2023-01-13T07:14:04.078Z,95.65
2023-01-13T07:16:36.194Z,95.79
2023-01-13T07:19:08.151Z,95.82
2023-01-13T07:21:40.348Z,95.94
2023-01-13T07:24:12.175Z,95.53
2023-01-13T07:26:44.034Z,95.47
2023-01-13T07:29:15.949Z,96.00
2023-01-13T07:31:49.944Z,96.09
2023-01-13T07:34:22.452Z,95.78
2023-01-13T07:36:54.594Z,95.92
2023-01-13T07:39:26.496Z,95.79
2023-01-13T07:42:15.882Z,95.96
2023-01-13T07:44:47.681Z,96.22
2023-01-13T07:47:23.290Z,96.28
2023-01-13T07:49:55.175Z,96.41
2023-01-13T07:52:27.171Z,95.99
2023-01-13T07:54:59.079Z,96.00
2023-01-13T07:57:31.636Z,96.12
2023-01-13T08:00:03.899Z,96.24
2023-01-13T08:02:35.753Z,96.27
2023-01-13T08:05:08.758Z,96.25
2023-01-13T08:07:40.805Z,96.33
2023-01-13T08:10:13.888Z,96.16
2023-01-13T08:13:03.785Z,96.75
2023-01-13T08:15:36.176Z,96.95
2023-01-13T08:18:08.094Z,96.73
2023-01-13T08:20:39.967Z,96.56
2023-01-13T08:23:11.936Z,96.41
2023-01-13T08:25:43.917Z,96.56
2023-01-13T08:28:17.504Z,96.47
2023-01-13T08:30:49.574Z,96.27
2023-01-13T08:33:21.927Z,96.54
2023-01-13T08:35:53.881Z,96.63
2023-01-13T08:38:26.379Z,96.73
2023-01-13T08:40:58.386Z,96.87
2023-01-13T08:43:30.423Z,96.94
2023-01-13T08:46:05.096Z,97.39
2023-01-13T08:48:37.188Z,97.23
2023-01-13T08:51:10.652Z,96.74
2023-01-13T08:53:42.972Z,96.55
2023-01-13T08:56:17.051Z,96.64
2023-01-13T08:58:47.297Z,96.24
2023-01-13T09:01:22.019Z,96.26
2023-01-13T09:03:54.532Z,95.93
2023-01-13T09:06:26.664Z,96.05
2023-01-13T09:08:58.600Z,95.68
2023-01-13T09:11:52.472Z,95.40
2023-01-13T09:14:26.446Z,95.31
2023-01-13T09:16:58.452Z,95.34
2023-01-13T09:19:30.803Z,94.94
2023-01-13T09:22:02.634Z,94.89
2023-01-13T09:24:34.754Z,94.76
2023-01-13T09:27:06.643Z,94.52
2023-01-13T09:29:39.268Z,94.49
2023-01-13T09:32:14.648Z,94.40
2023-01-13T09:35:02.356Z,94.49
2023-01-13T09:37:36.844Z,94.38
2023-01-13T09:40:12.613Z,94.34
2023-01-13T09:43:05.574Z,94.29
2023-01-13T09:45:44.306Z,93.98
2023-01-13T09:48:20.184Z,94.20
2023-01-13T09:50:59.193Z,93.96
2023-01-13T09:53:33.885Z,94.05
2023-01-13T09:56:06.254Z,93.83
2023-01-13T09:58:38.183Z,93.98
2023-01-13T10:01:20.646Z,93.73
2023-01-13T10:03:55.109Z,93.68
2023-01-13T10:06:34.595Z,93.69
2023-01-13T10:09:06.839Z,93.42
2023-01-13T10:11:59.850Z,93.27
2023-01-13T10:14:39.689Z,93.45
2023-01-13T10:17:18.065Z,93.40
2023-01-13T10:19:54.301Z,93.02
2023-01-13T10:22:33.579Z,92.88
2023-01-13T10:25:22.455Z,92.73
2023-01-13T10:27:56.385Z,92.57
2023-01-13T10:30:31.690Z,92.00
2023-01-13T10:33:10.444Z,91.96
2023-01-13T10:36:15.704Z,91.99
2023-01-13T10:38:48.826Z,91.19
2023-01-13T10:41:24.952Z,90.53
2023-01-13T10:44:07.260Z,90.63
2023-01-13T10:46:54.548Z,90.47
2023-01-13T10:49:36.456Z,89.81
2023-01-13T10:52:28.565Z,89.34
2023-01-13T10:55:01.310Z,89.28
2023-01-13T10:57:38.665Z,89.44
2023-01-13T11:00:30.264Z,89.65
2023-01-13T11:03:26.152Z,89.19
2023-01-13T11:06:00.345Z,88.11
2023-01-13T11:08:42.330Z,88.94
2023-01-13T11:11:40.340Z,88.68
2023-01-13T11:14:37.090Z,88.46
2023-01-13T11:17:34.164Z,88.53
2023-01-13T11:20:16.226Z,88.11
2023-01-13T11:22:51.349Z,88.17
2023-01-13T11:25:32.662Z,87.75
2023-01-13T11:28:07.994Z,87.35
2023-01-13T11:30:44.025Z,87.37
2023-01-13T11:33:32.082Z,87.02
2023-01-13T11:36:12.100Z,85.94
2023-01-13T11:38:53.539Z,86.20
2023-01-13T11:41:32.946Z,86.17
2023-01-13T11:44:14.740Z,85.96
2023-01-13T11:46:47.543Z,85.86
2023-01-13T11:49:26.621Z,85.87
2023-01-13T11:52:02.078Z,85.90
2023-01-13T11:54:49.531Z,84.77
2023-01-13T11:57:50.835Z,84.74
2023-01-13T12:00:32.787Z,85.09
2023-01-13T12:03:24.705Z,84.46
2023-01-13T12:06:16.581Z,84.66
2023-01-13T12:08:58.543Z,84.84
2023-01-13T12:11:54.595Z,84.12
2023-01-13T12:14:36.184Z,84.61
2023-01-13T12:17:12.821Z,84.75
2023-01-13T12:19:47.136Z,84.02
2023-01-13T12:22:24.620Z,84.37
2023-01-13T12:25:01.885Z,84.21
2023-01-13T12:27:41.825Z,84.37
2023-01-13T12:30:25.660Z,83.94
2023-01-13T12:33:04.459Z,84.18
2023-01-13T12:35:40.659Z,84.00
2023-01-13T12:38:15.372Z,84.20
2023-01-13T12:40:53.251Z,84.22
2023-01-13T12:43:43.634Z,84.43
2023-01-13T12:46:36.737Z,84.01
2023-01-13T12:49:22.412Z,84.41
2023-01-13T12:52:26.527Z,84.44
2023-01-13T12:55:18.216Z,84.26
2023-01-13T12:58:02.734Z,84.06
2023-01-13T13:00:53.551Z,83.92
2023-01-13T13:03:39.185Z,83.66
2023-01-13T13:06:17.277Z,83.80
2023-01-13T13:09:03.255Z,83.92
2023-01-13T13:12:06.802Z,83.79
2023-01-13T13:15:21.170Z,83.53
2023-01-13T13:18:21.126Z,83.99
2023-01-13T13:21:10.066Z,83.68
2023-01-13T13:24:06.056Z,83.65
2023-01-13T13:26:46.141Z,83.93
2023-01-13T13:29:44.505Z,83.84
2023-01-13T13:32:32.070Z,82.77
2023-01-13T13:35:15.357Z,83.59
2023-01-13T13:38:16.798Z,83.66
2023-01-13T13:41:07.127Z,83.36
2023-01-13T13:44:01.609Z,83.15
2023-01-13T13:46:48.367Z,82.95
2023-01-13T13:49:22.845Z,83.16
2023-01-13T13:52:01.603Z,83.23
2023-01-13T13:54:34.337Z,83.23
2023-01-13T13:57:06.334Z,83.23
2023-01-13T13:59:41.187Z,83.39
2023-01-13T14:02:21.077Z,83.43
2023-01-13T14:04:53.276Z,83.58
2023-01-13T14:07:25.506Z,83.53
2023-01-13T14:09:59.785Z,83.60
2023-01-13T14:12:30.444Z,84.03
2023-01-13T14:15:02.766Z,83.80
2023-01-13T14:17:34.835Z,83.58
2023-01-13T14:20:09.999Z,83.81
2023-01-13T14:22:41.951Z,83.91
2023-01-13T14:25:30.422Z,84.12
2023-01-13T14:28:06.858Z,83.93
2023-01-13T14:30:39.265Z,84.10
2023-01-13T14:33:17.329Z,84.21
2023-01-13T14:36:16.430Z,84.48
2023-01-13T14:38:49.861Z,84.36
2023-01-13T14:41:27.719Z,84.27
2023-01-13T14:44:01.960Z,84.32
2023-01-13T14:46:44.474Z,84.37
2023-01-13T14:49:27.977Z,84.32
2023-01-13T14:52:09.013Z,84.26
2023-01-13T14:54:49.158Z,84.32
2023-01-13T14:57:28.606Z,84.18
2023-01-13T15:00:05.111Z,84.35
2023-01-13T15:03:02.506Z,84.43
2023-01-13T15:05:42.751Z,84.39
2023-01-13T15:08:42.024Z,84.45
2023-01-13T15:11:25.170Z,84.45
2023-01-13T15:14:01.464Z,84.42
2023-01-13T15:16:35.012Z,84.51
2023-01-13T15:19:07.077Z,84.59
2023-01-13T15:21:38.887Z,84.66
2023-01-13T15:24:11.191Z,84.59
2023-01-13T15:26:43.191Z,84.55
2023-01-13T15:29:16.374Z,84.39
2023-01-13T15:31:48.176Z,84.56
2023-01-13T15:34:20.398Z,84.56
2023-01-13T15:36:52.241Z,84.41
2023-01-13T15:39:24.154Z,84.26
2023-01-13T15:42:15.697Z,84.45
2023-01-13T15:45:05.410Z,84.64
2023-01-13T15:47:37.807Z,84.82
2023-01-13T15:50:16.481Z,85.02
2023-01-13T15:52:48.459Z,85.21
2023-01-13T15:55:20.562Z,85.12
2023-01-13T15:57:52.798Z,85.23
2023-01-13T16:00:25.615Z,85.49
2023-01-13T16:02:57.883Z,85.70
2023-01-13T16:05:29.890Z,85.84
2023-01-13T16:08:01.983Z,85.93
2023-01-13T16:10:34.080Z,85.93
2023-01-13T16:13:06.221Z,86.01
2023-01-13T16:15:38.162Z,86.12
2023-01-13T16:18:12.018Z,86.16
2023-01-13T16:20:43.919Z,86.38
2023-01-13T16:23:16.197Z,86.48
2023-01-13T16:25:48.646Z,86.36
2023-01-13T16:28:24.406Z,86.73
2023-01-13T16:30:57.046Z,86.86
2023-01-13T16:33:29.030Z,86.94
2023-01-13T16:36:10.865Z,86.95
2023-01-13T16:38:45.020Z,86.93
2023-01-13T16:41:17.275Z,86.88
2023-01-13T16:43:49.649Z,87.18
2023-01-13T16:46:26.631Z,87.00
2023-01-13T16:49:03.108Z,87.19
2023-01-13T16:51:35.246Z,87.24
2023-01-13T16:54:07.299Z,87.42
2023-01-13T16:56:39.389Z,87.46
2023-01-13T16:59:13.658Z,87.25
2023-01-13T17:01:46.155Z,87.27
2023-01-13T17:04:20.332Z,87.50
2023-01-13T17:06:56.641Z,87.34
2023-01-13T17:09:29.867Z,87.30
2023-01-13T17:12:02.538Z,87.21
2023-01-13T17:14:34.325Z,87.25
2023-01-13T17:17:06.742Z,87.19
2023-01-13T17:19:38.630Z,87.23
2023-01-13T17:22:10.695Z,87.08
2023-01-13T17:24:42.904Z,87.15
2023-01-13T17:27:17.372Z,87.30
2023-01-13T17:29:49.191Z,87.10
2023-01-13T17:32:23.015Z,87.14
2023-01-13T17:34:55.449Z,87.09
2023-01-13T17:37:27.554Z,87.08
2023-01-13T17:39:59.504Z,86.93
2023-01-13T17:42:32.158Z,87.29
2023-01-13T17:45:04.091Z,86.87
2023-01-13T17:47:36.425Z,87.03
2023-01-13T17:50:09.613Z,87.10
2023-01-13T17:52:41.520Z,87.10
2023-01-13T17:55:13.550Z,87.27
2023-01-13T17:57:45.633Z,87.24
2023-01-13T18:00:20.453Z,87.74
2023-01-13T18:02:52.445Z,88.13
2023-01-13T18:05:25.054Z,88.14
2023-01-13T18:07:57.068Z,88.38
2023-01-13T18:10:29.435Z,88.50
2023-01-13T18:13:02.709Z,88.85
2023-01-13T18:15:35.587Z,89.10
2023-01-13T18:18:07.818Z,89.40
2023-01-13T18:21:05.809Z,89.74
2023-01-13T18:24:09.442Z,90.28
2023-01-13T18:26:59.336Z,90.38
2023-01-13T18:29:31.596Z,90.84
2023-01-13T18:32:03.603Z,91.10
2023-01-13T18:34:36.038Z,90.87
2023-01-13T18:37:09.405Z,91.09
2023-01-13T18:39:42.637Z,91.32
2023-01-13T18:42:32.382Z,91.51
2023-01-13T18:45:04.554Z,92.61
2023-01-13T18:47:39.139Z,92.68
2023-01-13T18:50:13.952Z,91.86
2023-01-13T18:52:46.005Z,92.04
2023-01-13T18:55:18.041Z,91.86
2023-01-13T18:57:50.477Z,92.11
2023-01-13T19:00:24.688Z,92.20
2023-01-13T19:05:38.422Z,92.46
2023-01-13T19:08:11.298Z,92.48
2023-01-13T19:10:45.797Z,92.80
2023-01-13T19:13:18.726Z,92.66
2023-01-13T19:15:50.633Z,92.38
2023-01-13T19:18:24.539Z,92.44
2023-01-13T19:20:56.311Z,92.38
2023-01-13T19:23:28.404Z,92.21
2023-01-13T19:26:03.175Z,92.40
2023-01-13T19:28:35.976Z,92.36
2023-01-13T19:31:09.758Z,92.13
2023-01-13T19:33:42.761Z,92.22
2023-01-13T19:36:14.729Z,92.34
2023-01-13T19:38:46.946Z,92.17
2023-01-13T19:41:32.931Z,91.95
2023-01-13T19:44:23.219Z,91.99
2023-01-13T19:46:55.000Z,92.03
2023-01-13T19:49:27.308Z,92.25
2023-01-13T19:51:59.228Z,91.72
2023-01-13T19:54:31.542Z,91.78
2023-01-13T19:57:03.501Z,91.85
2023-01-13T19:59:35.624Z,91.97
2023-01-13T20:02:09.795Z,91.84
2023-01-13T20:04:44.946Z,91.79
2023-01-13T20:07:16.957Z,91.78
2023-01-13T20:09:49.243Z,91.68
2023-01-13T20:12:21.659Z,91.37
2023-01-13T20:14:54.386Z,91.55
2023-01-13T20:17:26.787Z,91.47
2023-01-13T20:19:59.881Z,91.33
2023-01-13T20:22:32.296Z,91.25
2023-01-13T20:25:05.771Z,91.37
2023-01-13T20:27:38.426Z,91.27
2023-01-13T20:30:13.858Z,91.33
2023-01-13T20:32:46.376Z,91.22
2023-01-13T20:35:18.793Z,91.16
2023-01-13T20:37:51.301Z,91.14
2023-01-13T20:40:23.757Z,91.03
2023-01-13T20:42:56.949Z,90.86
2023-01-13T20:45:29.645Z,90.81
2023-01-13T20:48:01.771Z,90.62
2023-01-13T20:50:34.496Z,90.57
2023-01-13T20:53:06.572Z,90.36
2023-01-13T20:55:41.937Z,90.39
2023-01-13T20:58:13.724Z,90.23
2023-01-13T21:00:45.977Z,90.06
2023-01-13T21:03:17.953Z,89.62
2023-01-13T21:05:49.996Z,89.83
2023-01-13T21:08:21.826Z,89.20
2023-01-13T21:10:59.844Z,89.09
2023-01-13T21:13:49.352Z,89.17
2023-01-13T21:16:21.442Z,88.87
2023-01-13T21:19:10.812Z,88.76
2023-01-13T21:21:42.888Z,88.76
2023-01-13T21:24:14.690Z,88.73
2023-01-13T21:26:46.703Z,88.34
2023-01-13T21:29:18.798Z,88.31
2023-01-13T21:31:50.909Z,88.21
2023-01-13T21:34:22.720Z,88.16
2023-01-13T21:36:54.440Z,88.02
2023-01-13T21:39:26.366Z,87.89
2023-01-13T21:42:15.867Z,87.76
2023-01-13T21:45:05.473Z,87.87
2023-01-13T21:47:49.640Z,87.62
2023-01-13T21:50:23.235Z,87.56
2023-01-13T21:52:56.154Z,87.35
2023-01-13T21:55:29.443Z,87.52
2023-01-13T21:58:02.372Z,87.21
2023-01-13T22:00:34.476Z,87.15
2023-01-13T22:03:07.731Z,87.10
2023-01-13T22:05:40.070Z,87.13
2023-01-13T22:08:15.216Z,87.08
2023-01-13T22:10:58.544Z,86.99
2023-01-13T22:13:48.392Z,87.13
2023-01-13T22:16:20.734Z,86.92
2023-01-13T22:18:53.145Z,86.99
2023-01-13T22:21:25.009Z,86.79
2023-01-13T22:23:59.403Z,86.69
2023-01-13T22:26:29.757Z,86.88
2023-01-13T22:29:02.344Z,86.81
2023-01-13T22:31:34.209Z,86.64
2023-01-13T22:34:06.270Z,86.85
2023-01-13T22:36:38.080Z,86.89
2023-01-13T22:39:12.326Z,86.86
2023-01-13T22:41:44.132Z,86.63
2023-01-13T22:44:16.529Z,86.71
2023-01-13T22:46:48.701Z,86.73
2023-01-13T22:49:23.150Z,86.83
2023-01-13T22:51:55.480Z,86.67
2023-01-13T22:54:27.494Z,86.69
2023-01-13T22:56:59.357Z,86.66
2023-01-13T22:59:32.071Z,86.79
2023-01-13T23:02:03.987Z,86.83
2023-01-13T23:04:36.339Z,86.72
2023-01-13T23:07:08.241Z,86.85
2023-01-13T23:09:40.211Z,86.70
2023-01-13T23:12:12.128Z,86.92
2023-01-13T23:14:44.258Z,87.05
2023-01-13T23:17:16.078Z,87.01
2023-01-13T23:19:48.075Z,87.06
2023-01-13T23:22:20.260Z,86.90
2023-01-13T23:24:52.306Z,86.99
2023-01-13T23:27:24.228Z,86.99
2023-01-13T23:29:57.201Z,86.99
2023-01-13T23:32:29.361Z,87.19
2023-01-13T23:35:01.359Z,87.12
2023-01-13T23:37:34.288Z,87.36
2023-01-13T23:40:07.197Z,87.47
2023-01-13T23:42:38.995Z,87.16
2023-01-13T23:45:13.210Z,87.19
2023-01-13T23:47:43.576Z,87.36
2023-01-13T23:50:15.655Z,87.49
2023-01-13T23:52:47.425Z,87.50
2023-01-13T23:55:19.406Z,87.44
2023-01-13T23:57:51.201Z,87.52
